createdAt,value
2022-09-07T00:00:45.902Z,100349.25
2022-09-07T00:02:02.294Z,100350.59
2022-09-07T00:03:18.809Z,100353.58
2022-09-07T00:04:35.248Z,100352.78
2022-09-07T00:05:51.653Z,100352.56
2022-09-07T00:07:08.312Z,100355.35
2022-09-07T00:08:24.762Z,100362.74
2022-09-07T00:09:41.145Z,100362.36
2022-09-07T00:10:57.524Z,100376.44
2022-09-07T00:12:14.005Z,100396.68
2022-09-07T00:13:30.683Z,100420.50
2022-09-07T00:14:47.055Z,100455.05
2022-09-07T00:16:04.431Z,100509.22
2022-09-07T00:17:20.817Z,100538.91
2022-09-07T00:18:37.199Z,100537.93
2022-09-07T00:19:54.779Z,100546.05
2022-09-07T00:21:11.168Z,100546.31
2022-09-07T00:22:27.560Z,100547.58
2022-09-07T00:23:44.120Z,100556.55
2022-09-07T00:25:00.486Z,100571.23
2022-09-07T00:26:16.853Z,100563.86
2022-09-07T00:27:33.229Z,100575.03
2022-09-07T00:28:49.632Z,100572.69
2022-09-07T00:30:06.043Z,100570.93
2022-09-07T00:31:22.770Z,100562.23
2022-09-07T00:32:39.159Z,100570.42
2022-09-07T00:33:57.514Z,100564.64
2022-09-07T00:35:13.875Z,100565.48
2022-09-07T00:36:30.255Z,100565.47
2022-09-07T00:37:46.906Z,100569.96
2022-09-07T00:39:03.317Z,100577.81
2022-09-07T00:40:19.677Z,100581.04
2022-09-07T00:41:36.059Z,100581.98
2022-09-07T00:42:52.447Z,100592.88
2022-09-07T00:44:09.107Z,100592.64
2022-09-07T00:45:25.508Z,100592.36
2022-09-07T00:46:41.905Z,100597.06
2022-09-07T00:47:58.280Z,100608.51
2022-09-07T00:49:14.640Z,100594.88
2022-09-07T00:50:31.319Z,100605.91
2022-09-07T00:51:47.702Z,100608.62
2022-09-07T00:53:04.132Z,100604.44
2022-09-07T00:54:20.502Z,100602.88
2022-09-07T00:55:36.943Z,100609.32
2022-09-07T00:56:53.575Z,100618.48
2022-09-07T00:58:09.962Z,100616.34
2022-09-07T00:59:26.313Z,100623.17
2022-09-07T01:00:42.733Z,100618.23
2022-09-07T01:01:59.259Z,100616.59
2022-09-07T01:03:15.961Z,100611.81
2022-09-07T01:04:32.304Z,100611.28
2022-09-07T01:05:48.714Z,100614.19
2022-09-07T01:07:05.072Z,100606.28
2022-09-07T01:08:21.455Z,100609.82
2022-09-07T01:09:38.107Z,100608.38
2022-09-07T01:10:54.559Z,100605.76
2022-09-07T01:12:10.927Z,100610.18
2022-09-07T01:13:27.307Z,100608.55
2022-09-07T01:14:43.689Z,100603.03
2022-09-07T01:16:00.369Z,100593.22
2022-09-07T01:17:16.757Z,100592.99
2022-09-07T01:18:33.160Z,100595.09
2022-09-07T01:19:49.524Z,100593.43
2022-09-07T01:21:05.880Z,100591.38
2022-09-07T01:22:22.585Z,100590.59
2022-09-07T01:23:38.942Z,100592.12
2022-09-07T01:24:57.256Z,100593.70
2022-09-07T01:26:13.632Z,100598.02
2022-09-07T01:27:29.994Z,100595.89
2022-09-07T01:28:46.736Z,100595.41
2022-09-07T01:30:03.092Z,100594.61
2022-09-07T01:31:19.472Z,100588.29
2022-09-07T01:32:36.795Z,100592.54
2022-09-07T01:33:53.195Z,100589.12
2022-09-07T01:35:09.823Z,100587.69
2022-09-07T01:36:26.200Z,100587.12
2022-09-07T01:37:42.579Z,100592.25
2022-09-07T01:38:59.025Z,100588.61
2022-09-07T01:40:15.348Z,100591.30
2022-09-07T01:41:32.011Z,100600.68
2022-09-07T01:42:48.401Z,100602.89
2022-09-07T01:44:04.790Z,100601.23
2022-09-07T01:45:23.109Z,100608.80
2022-09-07T01:46:39.584Z,100605.62
2022-09-07T01:47:56.231Z,100602.90
2022-09-07T01:49:12.621Z,100602.62
2022-09-07T01:50:28.982Z,100606.25
2022-09-07T01:51:45.392Z,100609.25
2022-09-07T01:53:01.740Z,100607.84
2022-09-07T01:54:18.375Z,100610.22
2022-09-07T01:55:34.725Z,100616.44
2022-09-07T01:56:51.134Z,100616.28
2022-09-07T01:58:07.504Z,100609.72
2022-09-07T01:59:23.877Z,100606.06
2022-09-07T02:00:40.524Z,100601.48
2022-09-07T02:01:56.942Z,100591.04
2022-09-07T02:03:13.277Z,100585.22
2022-09-07T02:04:29.648Z,100585.61
2022-09-07T02:05:46.008Z,100579.28
2022-09-07T02:07:03.668Z,100580.31
2022-09-07T02:08:20.021Z,100580.56
2022-09-07T02:09:38.348Z,100576.66
2022-09-07T02:10:54.707Z,100573.31
2022-09-07T02:12:11.125Z,100562.19
2022-09-07T02:13:27.759Z,100562.52
2022-09-07T02:14:48.314Z,100546.06
2022-09-07T02:16:06.351Z,100543.81
2022-09-07T02:17:22.722Z,100545.62
2022-09-07T02:18:39.087Z,100542.91
2022-09-07T02:19:55.865Z,100547.10
2022-09-07T02:21:13.162Z,100539.26
2022-09-07T02:22:29.550Z,100529.45
2022-09-07T02:23:45.913Z,100521.66
2022-09-07T02:25:02.438Z,100524.09
2022-09-07T02:26:19.073Z,100520.64
2022-09-07T02:27:35.465Z,100520.64
2022-09-07T02:28:51.836Z,100517.67
2022-09-07T02:30:10.186Z,100517.51
2022-09-07T02:31:26.611Z,100517.48
2022-09-07T02:32:43.296Z,100517.17
2022-09-07T02:33:59.667Z,100518.77
2022-09-07T02:35:16.058Z,100512.80
2022-09-07T02:36:32.426Z,100499.23
2022-09-07T02:37:48.799Z,100485.10
2022-09-07T02:39:05.444Z,100486.12
2022-09-07T02:40:21.841Z,100483.17
2022-09-07T02:41:40.164Z,100473.47
2022-09-07T02:42:56.530Z,100472.72
2022-09-07T02:44:12.892Z,100472.95
2022-09-07T02:45:29.652Z,100471.75
2022-09-07T02:46:46.022Z,100470.42
2022-09-07T02:48:04.343Z,100471.42
2022-09-07T02:49:20.703Z,100468.62
2022-09-07T02:50:37.173Z,100465.71
2022-09-07T02:51:53.793Z,100460.96
2022-09-07T02:53:10.176Z,100457.63
2022-09-07T02:54:26.566Z,100461.03
2022-09-07T02:55:43.109Z,100457.96
2022-09-07T02:57:00.415Z,100451.67
2022-09-07T02:58:17.055Z,100448.68
2022-09-07T02:59:33.415Z,100442.85
2022-09-07T03:00:49.875Z,100442.91
2022-09-07T03:02:06.290Z,100433.47
2022-09-07T03:03:23.616Z,100436.49
2022-09-07T03:04:40.262Z,100428.52
2022-09-07T03:05:56.661Z,100423.23
2022-09-07T03:07:13.044Z,100417.95
2022-09-07T03:08:29.488Z,100419.41
2022-09-07T03:09:45.930Z,100418.61
2022-09-07T03:11:02.611Z,100417.79
2022-09-07T03:12:19.037Z,100420.25
2022-09-07T03:13:35.392Z,100415.54
2022-09-07T03:14:51.781Z,100422.89
2022-09-07T03:16:08.208Z,100419.20
2022-09-07T03:17:24.832Z,100415.47
2022-09-07T03:18:41.208Z,100414.67
2022-09-07T03:19:57.620Z,100413.79
2022-09-07T03:21:13.993Z,100413.97
2022-09-07T03:22:30.358Z,100412.27
2022-09-07T03:23:51.601Z,100405.98
2022-09-07T03:25:08.224Z,100407.19
2022-09-07T03:26:24.602Z,100407.58
2022-09-07T03:27:40.955Z,100409.50
2022-09-07T03:28:57.336Z,100406.62
2022-09-07T03:30:15.967Z,100407.03
2022-09-07T03:31:32.345Z,100406.64
2022-09-07T03:32:48.686Z,100407.09
2022-09-07T03:34:05.108Z,100407.88
2022-09-07T03:35:21.468Z,100406.34
2022-09-07T03:36:38.127Z,100405.30
2022-09-07T03:37:54.486Z,100406.16
2022-09-07T03:39:10.891Z,100405.30
2022-09-07T03:40:27.249Z,100409.41
2022-09-07T03:41:43.623Z,100409.65
2022-09-07T03:43:00.270Z,100411.22
2022-09-07T03:44:16.678Z,100409.77
2022-09-07T03:45:33.041Z,100411.28
2022-09-07T03:46:49.451Z,100413.96
2022-09-07T03:48:05.842Z,100412.80
2022-09-07T03:49:22.493Z,100409.95
2022-09-07T03:50:38.875Z,100414.23
2022-09-07T03:51:55.278Z,100411.14
2022-09-07T03:53:11.639Z,100406.86
2022-09-07T03:54:28.005Z,100410.83
2022-09-07T03:55:44.660Z,100419.67
2022-09-07T03:57:01.054Z,100417.62
2022-09-07T03:58:17.435Z,100417.78
2022-09-07T03:59:33.812Z,100421.78
2022-09-07T04:00:50.165Z,100419.71
2022-09-07T04:02:07.052Z,100422.24
2022-09-07T04:03:23.406Z,100421.14
2022-09-07T04:04:39.784Z,100422.02
2022-09-07T04:05:58.088Z,100420.34
2022-09-07T04:07:14.517Z,100419.88
2022-09-07T04:08:31.260Z,100417.96
2022-09-07T04:09:47.628Z,100418.27
2022-09-07T04:11:03.989Z,100424.88
2022-09-07T04:12:20.420Z,100418.92
2022-09-07T04:13:36.777Z,100418.81
2022-09-07T04:14:55.380Z,100421.99
2022-09-07T04:16:11.739Z,100420.25
2022-09-07T04:17:28.176Z,100412.98
2022-09-07T04:18:44.552Z,100416.02
2022-09-07T04:20:03.402Z,100412.67
2022-09-07T04:21:20.061Z,100416.19
2022-09-07T04:22:36.438Z,100418.57
2022-09-07T04:23:52.813Z,100415.69
2022-09-07T04:25:09.192Z,100415.12
2022-09-07T04:26:27.525Z,100417.91
2022-09-07T04:27:44.218Z,100414.97
2022-09-07T04:29:02.575Z,100413.86
2022-09-07T04:30:20.925Z,100417.57
2022-09-07T04:31:39.269Z,100423.78
2022-09-07T04:32:57.618Z,100429.45
2022-09-07T04:34:16.267Z,100430.39
2022-09-07T04:35:33.578Z,100437.07
2022-09-07T04:36:51.938Z,100437.80
2022-09-07T04:38:10.281Z,100442.88
2022-09-07T04:39:28.708Z,100439.45
2022-09-07T04:40:45.360Z,100440.79
2022-09-07T04:42:01.790Z,100435.52
2022-09-07T04:43:20.130Z,100440.61
2022-09-07T04:44:39.393Z,100439.83
2022-09-07T04:45:57.865Z,100440.14
2022-09-07T04:47:16.422Z,100439.51
2022-09-07T04:48:34.770Z,100438.88
2022-09-07T04:49:53.092Z,100435.52
2022-09-07T04:51:11.532Z,100437.42
2022-09-07T04:52:29.889Z,100438.52
2022-09-07T04:53:48.534Z,100439.22
2022-09-07T04:55:06.872Z,100436.41
2022-09-07T04:56:25.245Z,100439.28
2022-09-07T04:57:43.566Z,100439.54
2022-09-07T04:59:02.416Z,100445.66
2022-09-07T05:00:20.010Z,100441.27
2022-09-07T05:01:37.408Z,100445.31
2022-09-07T05:02:56.341Z,100448.02
2022-09-07T05:06:05.135Z,100454.73
2022-09-07T05:07:24.298Z,100450.27
2022-09-07T05:08:42.647Z,100443.41
2022-09-07T05:10:00.446Z,100441.36
2022-09-07T05:11:17.765Z,100440.92
2022-09-07T05:12:35.143Z,100446.52
2022-09-07T05:13:54.304Z,100445.26
2022-09-07T05:15:12.695Z,100442.67
2022-09-07T05:16:30.065Z,100444.05
2022-09-07T05:17:47.416Z,100439.73
2022-09-07T05:19:06.273Z,100443.12
2022-09-07T05:20:25.425Z,100441.20
2022-09-07T05:21:42.777Z,100440.42
2022-09-07T05:23:01.128Z,100439.94
2022-09-07T05:24:19.847Z,100438.52
2022-09-07T05:25:37.218Z,100436.64
2022-09-07T05:26:56.058Z,100434.25
2022-09-07T05:28:18.599Z,100433.76
2022-09-07T05:32:21.530Z,100431.78
2022-09-07T05:35:03.121Z,100434.70
2022-09-07T05:36:20.983Z,100443.46
2022-09-07T05:37:39.896Z,100442.51
2022-09-07T05:38:58.411Z,100444.73
2022-09-07T05:40:17.339Z,100448.95
2022-09-07T05:41:35.723Z,100446.33
2022-09-07T05:42:53.075Z,100446.89
2022-09-07T05:45:34.177Z,100447.53
2022-09-07T05:46:51.558Z,100447.22
2022-09-07T05:48:11.507Z,100453.61
2022-09-07T05:49:28.866Z,100453.61
2022-09-07T05:50:47.259Z,100451.59
2022-09-07T05:52:04.909Z,100450.72
2022-09-07T05:53:22.276Z,100451.49
2022-09-07T05:54:40.617Z,100454.52
2022-09-07T05:55:57.958Z,100451.89
2022-09-07T05:57:15.326Z,100456.89
2022-09-07T05:58:35.469Z,100459.68
2022-09-07T05:59:54.390Z,100460.69
2022-09-07T06:01:12.799Z,100459.89
2022-09-07T06:02:30.205Z,100461.82
2022-09-07T06:03:48.593Z,100461.75
2022-09-07T06:05:06.781Z,100460.88
2022-09-07T06:06:25.629Z,100465.04
2022-09-07T06:07:44.513Z,100462.84
2022-09-07T06:09:03.455Z,100468.59
2022-09-07T06:11:45.013Z,100470.23
2022-09-07T06:13:02.346Z,100467.49
2022-09-07T06:14:19.753Z,100471.57
2022-09-07T06:15:37.112Z,100472.05
2022-09-07T06:16:55.539Z,100472.80
2022-09-07T06:18:14.768Z,100476.48
2022-09-07T06:19:33.595Z,100466.39
2022-09-07T06:20:50.925Z,100469.30
2022-09-07T06:22:08.864Z,100473.31
2022-09-07T06:23:27.216Z,100469.98
2022-09-07T06:24:44.837Z,100476.37
2022-09-07T06:26:03.212Z,100475.44
2022-09-07T06:27:20.559Z,100471.62
2022-09-07T06:28:38.995Z,100470.79
2022-09-07T06:29:57.833Z,100469.38
2022-09-07T06:31:15.584Z,100470.20
2022-09-07T06:32:49.375Z,100467.38
2022-09-07T06:33:57.670Z,100461.84
2022-09-07T06:35:15.004Z,100470.56
2022-09-07T06:36:32.330Z,100470.31
2022-09-07T06:37:51.001Z,100469.08
2022-09-07T06:39:08.329Z,100477.86
2022-09-07T06:40:27.192Z,100479.09
2022-09-07T06:41:59.803Z,100481.31
2022-09-07T06:43:08.219Z,100480.07
2022-09-07T06:44:27.553Z,100482.78
2022-09-07T06:45:44.977Z,100478.88
2022-09-07T06:47:03.797Z,100486.00
2022-09-07T06:48:22.665Z,100492.48
2022-09-07T06:49:40.306Z,100488.43
2022-09-07T06:50:58.681Z,100492.34
2022-09-07T06:52:19.386Z,100495.00
2022-09-07T06:53:38.556Z,100490.45
2022-09-07T06:54:59.719Z,100495.07
2022-09-07T06:56:18.517Z,100493.10
2022-09-07T06:57:37.538Z,100496.38
2022-09-07T06:58:54.871Z,100488.97
2022-09-07T07:00:13.965Z,100485.52
2022-09-07T07:03:22.830Z,100481.08
2022-09-07T07:04:41.268Z,100483.48
2022-09-07T07:05:58.688Z,100478.58
2022-09-07T07:07:18.449Z,100479.95
2022-09-07T07:08:36.541Z,100488.28
2022-09-07T07:09:54.906Z,100492.05
2022-09-07T07:11:13.770Z,100490.97
2022-09-07T07:14:01.668Z,100486.88
2022-09-07T07:15:21.561Z,100495.56
2022-09-07T07:16:38.986Z,100490.84
2022-09-07T07:19:48.378Z,100505.72
2022-09-07T07:21:05.764Z,100506.91
2022-09-07T07:22:45.463Z,100505.22
2022-09-07T07:23:51.414Z,100505.47
2022-09-07T07:25:09.377Z,100504.47
2022-09-07T07:26:32.572Z,100510.04
2022-09-07T07:27:51.548Z,100509.45
2022-09-07T07:29:12.105Z,100511.16
2022-09-07T07:30:30.198Z,100513.91
2022-09-07T07:31:49.227Z,100514.39
2022-09-07T07:33:09.394Z,100514.29
2022-09-07T07:34:34.600Z,100514.81
2022-09-07T07:35:52.062Z,100510.25
2022-09-07T07:37:10.162Z,100516.13
2022-09-07T07:42:39.925Z,100521.03
2022-09-07T07:44:06.755Z,100515.22
2022-09-07T07:46:48.263Z,100518.89
2022-09-07T07:48:06.645Z,100520.20
2022-09-07T07:49:24.486Z,100520.48
2022-09-07T07:50:42.777Z,100519.23
2022-09-07T07:53:42.263Z,100512.03
2022-09-07T07:54:48.407Z,100512.62
2022-09-07T07:56:07.280Z,100505.20
2022-09-07T07:57:26.720Z,100506.12
2022-09-07T08:00:53.812Z,100508.97
2022-09-07T08:02:00.251Z,100510.80
2022-09-07T08:05:10.330Z,100515.35
2022-09-07T08:10:09.583Z,100517.14
2022-09-07T08:11:30.541Z,100518.86
2022-09-07T08:12:49.551Z,100521.14
2022-09-07T08:14:07.954Z,100520.61
2022-09-07T08:15:25.919Z,100522.34
2022-09-07T08:16:44.085Z,100524.70
2022-09-07T08:18:03.893Z,100532.98
2022-09-07T08:19:21.459Z,100535.26
2022-09-07T08:20:40.000Z,100533.76
2022-09-07T08:21:59.502Z,100538.68
2022-09-07T08:23:18.006Z,100541.55
2022-09-07T08:24:37.240Z,100544.94
2022-09-07T08:25:58.171Z,100549.17
2022-09-07T08:27:17.756Z,100543.09
2022-09-07T08:28:36.358Z,100542.42
2022-09-07T08:31:46.347Z,100543.41
2022-09-07T08:33:04.849Z,100549.84
2022-09-07T08:34:24.028Z,100552.15
2022-09-07T08:35:42.951Z,100556.95
2022-09-07T08:37:02.605Z,100557.02
2022-09-07T08:38:23.907Z,100560.66
2022-09-07T08:39:44.537Z,100558.60
2022-09-07T08:41:03.565Z,100555.91
2022-09-07T08:42:28.989Z,100555.70
2022-09-07T08:43:49.264Z,100561.30
2022-09-07T08:45:09.432Z,100558.22
2022-09-07T08:46:30.274Z,100563.97
2022-09-07T08:47:50.631Z,100558.46
2022-09-07T08:49:11.267Z,100557.89
2022-09-07T08:50:29.255Z,100560.40
2022-09-07T08:51:47.233Z,100562.94
2022-09-07T08:53:09.663Z,100562.70
2022-09-07T08:54:28.264Z,100566.10
2022-09-07T08:55:48.330Z,100566.02
2022-09-07T08:57:22.411Z,100561.84
2022-09-07T08:58:48.206Z,100560.95
2022-09-07T08:59:53.610Z,100560.38
2022-09-07T09:02:43.130Z,100559.88
2022-09-07T09:04:21.306Z,100561.45
2022-09-07T09:05:28.645Z,100560.73
2022-09-07T09:06:49.770Z,100560.34
2022-09-07T09:08:07.654Z,100557.51
2022-09-07T09:11:16.878Z,100560.22
2022-09-07T09:12:39.489Z,100568.85
2022-09-07T09:13:59.056Z,100561.45
2022-09-07T09:15:17.630Z,100560.08
2022-09-07T09:16:36.597Z,100556.67
2022-09-07T09:18:00.436Z,100561.02
2022-09-07T09:19:18.382Z,100560.34
2022-09-07T09:20:36.276Z,100556.84
2022-09-07T09:21:55.526Z,100563.58
2022-09-07T09:23:13.032Z,100563.64
2022-09-07T09:24:30.115Z,100559.09
2022-09-07T09:25:49.209Z,100559.92
2022-09-07T09:27:08.584Z,100559.79
2022-09-07T09:28:28.980Z,100560.87
2022-09-07T09:29:50.158Z,100554.88
2022-09-07T09:31:08.229Z,100551.98
2022-09-07T09:32:25.809Z,100549.52
2022-09-07T09:33:43.560Z,100552.83
2022-09-07T09:35:02.730Z,100548.14
2022-09-07T09:36:21.138Z,100546.61
2022-09-07T09:37:39.592Z,100552.45
2022-09-07T09:39:02.102Z,100544.59
2022-09-07T09:40:19.652Z,100542.89
2022-09-07T09:41:38.961Z,100541.35
2022-09-07T09:42:57.692Z,100544.44
2022-09-07T09:44:16.602Z,100548.17
2022-09-07T09:48:48.155Z,100541.73
2022-09-07T09:50:09.753Z,100536.10
2022-09-07T09:52:52.157Z,100548.45
2022-09-07T09:54:11.314Z,100549.84
2022-09-07T09:55:35.128Z,100551.55
2022-09-07T09:56:57.396Z,100543.47
2022-09-07T10:01:21.788Z,100545.68
2022-09-07T10:05:45.191Z,100544.68
2022-09-07T10:08:55.023Z,100539.68
2022-09-07T10:10:15.848Z,100541.17
2022-09-07T10:12:59.080Z,100536.60
2022-09-07T10:14:18.940Z,100535.55
2022-09-07T10:15:41.128Z,100534.19
2022-09-07T10:16:59.202Z,100525.67
2022-09-07T10:18:23.491Z,100525.23
2022-09-07T10:19:42.114Z,100528.04
2022-09-07T10:21:00.641Z,100529.97
2022-09-07T10:22:20.612Z,100529.34
2022-09-07T10:23:38.105Z,100527.13
2022-09-07T10:24:55.716Z,100529.34
2022-09-07T10:26:12.351Z,100526.02
2022-09-07T10:27:31.621Z,100526.73
2022-09-07T10:30:12.083Z,100533.05
2022-09-07T10:31:33.964Z,100534.88
2022-09-07T10:32:52.719Z,100529.73
2022-09-07T10:34:27.465Z,100520.83
2022-09-07T10:37:26.867Z,100520.42
2022-09-07T10:38:51.610Z,100524.66
2022-09-07T10:40:09.840Z,100524.94
2022-09-07T10:41:31.035Z,100520.16
2022-09-07T10:44:16.481Z,100521.81
2022-09-07T10:47:27.491Z,100518.77
2022-09-07T10:48:47.969Z,100523.69
2022-09-07T10:50:22.763Z,100525.55
2022-09-07T10:51:30.347Z,100527.58
2022-09-07T10:52:49.596Z,100520.29
2022-09-07T10:55:38.163Z,100520.94
2022-09-07T10:56:57.104Z,100526.67
2022-09-07T10:58:15.469Z,100527.19
2022-09-07T11:00:58.095Z,100523.45
2022-09-07T11:02:17.667Z,100527.34
2022-09-07T11:03:34.585Z,100522.95
2022-09-07T11:04:53.535Z,100521.31
2022-09-07T11:06:11.404Z,100526.92
2022-09-07T11:07:29.948Z,100524.02
2022-09-07T11:10:16.435Z,100525.69
2022-09-07T11:12:57.514Z,100527.22
2022-09-07T11:14:17.900Z,100527.79
2022-09-07T11:15:38.072Z,100520.76
2022-09-07T11:16:55.682Z,100522.59
2022-09-07T11:18:13.810Z,100520.42
2022-09-07T11:19:35.632Z,100518.47
2022-09-07T11:20:54.151Z,100524.22
2022-09-07T11:22:12.565Z,100523.84
2022-09-07T11:23:30.971Z,100528.59
2022-09-07T11:25:29.001Z,100522.05
2022-09-07T11:26:12.538Z,100521.45
2022-09-07T11:27:30.930Z,100527.48
2022-09-07T11:29:28.781Z,100529.34
2022-09-07T11:30:10.952Z,100531.99
2022-09-07T11:31:28.838Z,100530.33
2022-09-07T11:32:46.752Z,100530.98
2022-09-07T11:35:27.574Z,100534.84
2022-09-07T11:36:45.483Z,100536.10
2022-09-07T11:38:03.854Z,100534.51
2022-09-07T11:39:21.176Z,100538.73
2022-09-07T11:40:39.052Z,100538.40
2022-09-07T11:41:56.396Z,100539.62
2022-09-07T11:43:15.187Z,100529.63
2022-09-07T11:44:33.048Z,100526.05
2022-09-07T11:45:52.310Z,100520.81
2022-09-07T11:47:10.174Z,100524.02
2022-09-07T11:48:31.103Z,100524.28
2022-09-07T11:49:53.290Z,100519.69
2022-09-07T11:51:13.269Z,100523.07
2022-09-07T11:52:33.876Z,100521.89
2022-09-07T11:53:52.234Z,100516.78
2022-09-07T11:55:10.643Z,100521.53
2022-09-07T11:56:28.553Z,100528.36
2022-09-07T11:57:52.408Z,100526.96
2022-09-07T11:59:11.436Z,100521.96
2022-09-07T12:00:28.836Z,100515.48
2022-09-07T12:01:46.726Z,100513.09
2022-09-07T12:03:05.387Z,100510.05
2022-09-07T12:04:23.269Z,100510.62
2022-09-07T12:05:41.629Z,100509.92
2022-09-07T12:06:59.479Z,100505.33
2022-09-07T12:08:17.346Z,100498.87
2022-09-07T12:09:35.502Z,100511.19
2022-09-07T12:10:53.353Z,100510.22
2022-09-07T12:12:12.460Z,100507.07
2022-09-07T12:13:29.802Z,100507.53
2022-09-07T12:14:48.712Z,100501.98
2022-09-07T12:16:06.120Z,100499.29
2022-09-07T12:17:24.553Z,100496.39
2022-09-07T12:18:42.966Z,100494.38
2022-09-07T12:20:00.845Z,100491.30
2022-09-07T12:21:18.749Z,100489.28
2022-09-07T12:22:37.143Z,100495.94
2022-09-07T12:23:58.269Z,100494.07
2022-09-07T12:25:18.658Z,100487.61
2022-09-07T12:26:41.106Z,100482.99
2022-09-07T12:27:59.501Z,100487.80
2022-09-07T12:29:18.409Z,100489.17
2022-09-07T12:30:38.421Z,100487.41
2022-09-07T12:31:59.242Z,100490.13
2022-09-07T12:33:19.022Z,100486.39
2022-09-07T12:34:38.873Z,100491.27
2022-09-07T12:35:56.762Z,100490.70
2022-09-07T12:37:15.147Z,100494.18
2022-09-07T12:38:33.080Z,100492.42
2022-09-07T12:39:53.168Z,100492.84
2022-09-07T12:41:11.056Z,100495.23
2022-09-07T12:42:32.884Z,100485.30
2022-09-07T12:43:50.871Z,100486.93
2022-09-07T12:45:09.457Z,100487.62
2022-09-07T12:46:27.440Z,100487.42
2022-09-07T12:47:47.655Z,100489.29
2022-09-07T12:49:07.880Z,100485.86
2022-09-07T12:50:26.626Z,100480.52
2022-09-07T12:52:14.229Z,100483.02
2022-09-07T12:53:10.882Z,100482.42
2022-09-07T12:54:28.779Z,100479.75
2022-09-07T12:58:32.886Z,100475.98
2022-09-07T12:59:50.895Z,100475.53
2022-09-07T13:01:09.413Z,100477.69
2022-09-07T13:02:27.460Z,100478.55
2022-09-07T13:03:53.049Z,100480.74
2022-09-07T13:05:08.712Z,100477.84
2022-09-07T13:07:50.301Z,100480.50
2022-09-07T13:09:08.151Z,100482.38
2022-09-07T13:10:26.548Z,100480.34
2022-09-07T13:11:48.011Z,100478.30
2022-09-07T13:13:06.383Z,100477.80
2022-09-07T13:14:24.131Z,100473.70
2022-09-07T13:15:42.162Z,100475.08
2022-09-07T13:18:22.725Z,100478.50
2022-09-07T13:19:40.765Z,100477.17
2022-09-07T13:22:50.407Z,100475.21
2022-09-07T13:25:30.548Z,100469.80
2022-09-07T13:26:51.178Z,100473.02
2022-09-07T13:28:09.221Z,100473.62
2022-09-07T13:29:26.597Z,100475.30
2022-09-07T13:30:47.082Z,100479.22
2022-09-07T13:32:04.989Z,100480.28
2022-09-07T13:33:22.376Z,100480.09
2022-09-07T13:34:40.849Z,100481.97
2022-09-07T13:35:58.683Z,100483.62
2022-09-07T13:37:16.888Z,100481.30
2022-09-07T13:38:34.813Z,100474.47
2022-09-07T13:39:52.761Z,100473.90
2022-09-07T13:41:10.714Z,100473.75
2022-09-07T13:42:28.266Z,100468.98
2022-09-07T13:43:46.907Z,100470.81
2022-09-07T13:45:06.154Z,100465.69
2022-09-07T13:46:25.519Z,100466.76
2022-09-07T13:47:43.478Z,100466.36
2022-09-07T13:49:01.289Z,100464.70
2022-09-07T13:50:19.214Z,100466.59
2022-09-07T13:51:37.632Z,100461.15
2022-09-07T13:52:57.151Z,100454.95
2022-09-07T13:54:16.259Z,100449.98
2022-09-07T13:55:34.422Z,100455.77
2022-09-07T13:56:52.323Z,100454.17
2022-09-07T13:58:09.696Z,100456.41
2022-09-07T13:59:27.116Z,100454.80
2022-09-07T14:00:44.155Z,100452.20
2022-09-07T14:02:01.006Z,100445.41
2022-09-07T14:03:20.672Z,100447.08
2022-09-07T14:04:38.058Z,100443.75
2022-09-07T14:05:55.597Z,100446.73
2022-09-07T14:07:13.979Z,100439.77
2022-09-07T14:08:31.581Z,100441.73
2022-09-07T14:09:50.491Z,100442.23
2022-09-07T14:11:09.389Z,100444.70
2022-09-07T14:12:28.259Z,100437.60
2022-09-07T14:13:46.104Z,100438.59
2022-09-07T14:15:08.359Z,100435.39
2022-09-07T14:16:26.316Z,100429.33
2022-09-07T14:17:44.243Z,100426.72
2022-09-07T14:19:01.656Z,100428.66
2022-09-07T14:20:19.102Z,100431.27
2022-09-07T14:21:36.528Z,100435.28
2022-09-07T14:22:53.562Z,100432.12
2022-09-07T14:24:11.477Z,100435.19
2022-09-07T14:25:29.558Z,100434.87
2022-09-07T14:26:47.833Z,100435.03
2022-09-07T14:28:05.692Z,100441.82
2022-09-07T14:29:23.030Z,100442.44
2022-09-07T14:30:40.962Z,100442.00
2022-09-07T14:31:57.924Z,100440.18
2022-09-07T14:33:16.341Z,100437.62
2022-09-07T14:34:32.870Z,100439.63
2022-09-07T14:35:49.774Z,100442.16
2022-09-07T14:37:08.324Z,100436.31
2022-09-07T14:39:53.050Z,100428.14
2022-09-07T14:41:09.555Z,100423.39
2022-09-07T14:42:27.121Z,100424.31
2022-09-07T14:43:45.096Z,100432.80
2022-09-07T14:45:02.980Z,100427.58
2022-09-07T14:46:19.578Z,100433.75
2022-09-07T14:47:37.480Z,100433.74
2022-09-07T14:48:55.850Z,100435.96
2022-09-07T14:50:15.467Z,100434.81
2022-09-07T14:51:37.218Z,100435.22
2022-09-07T14:54:17.364Z,100436.07
2022-09-07T14:55:36.469Z,100431.89
2022-09-07T14:56:54.344Z,100427.53
2022-09-07T14:58:12.244Z,100431.60
2022-09-07T14:59:30.095Z,100424.36
2022-09-07T15:01:37.255Z,100419.23
2022-09-07T15:02:09.673Z,100421.17
2022-09-07T15:03:28.276Z,100419.41
2022-09-07T15:04:46.241Z,100422.28
2022-09-07T15:06:04.148Z,100423.57
2022-09-07T15:07:26.890Z,100419.38
2022-09-07T15:08:44.758Z,100422.49
2022-09-07T15:10:02.099Z,100423.52
2022-09-07T15:11:36.435Z,100425.67
2022-09-07T15:12:44.655Z,100427.19
2022-09-07T15:14:02.171Z,100425.06
2022-09-07T15:15:21.812Z,100427.84
2022-09-07T15:16:38.515Z,100427.44
2022-09-07T15:18:01.671Z,100426.67
2022-09-07T15:19:19.261Z,100424.70
2022-09-07T15:20:36.594Z,100432.98
2022-09-07T15:21:54.450Z,100427.23
2022-09-07T15:23:12.339Z,100427.34
2022-09-07T15:24:30.266Z,100426.62
2022-09-07T15:25:52.233Z,100425.91
2022-09-07T15:27:12.216Z,100421.91
2022-09-07T15:29:53.272Z,100408.70
2022-09-07T15:32:34.194Z,100409.15
2022-09-07T15:33:52.660Z,100406.12
2022-09-07T15:35:09.076Z,100406.22
2022-09-07T15:36:26.923Z,100407.86
2022-09-07T15:39:07.043Z,100406.01
2022-09-07T15:40:23.577Z,100405.59
2022-09-07T15:41:42.773Z,100403.91
2022-09-07T15:43:02.086Z,100403.48
2022-09-07T15:44:26.301Z,100396.05
2022-09-07T15:45:45.820Z,100398.58
2022-09-07T15:48:26.449Z,100405.47
2022-09-07T15:49:50.391Z,100407.48
2022-09-07T15:52:31.513Z,100404.06
2022-09-07T15:55:13.141Z,100403.91
2022-09-07T15:56:31.249Z,100402.95
2022-09-07T15:57:54.611Z,100406.30
2022-09-07T15:59:11.854Z,100409.77
2022-09-07T16:00:29.753Z,100412.30
2022-09-07T16:01:55.336Z,100411.03
2022-09-07T16:03:10.435Z,100410.26
2022-09-07T16:04:28.412Z,100410.80
2022-09-07T16:05:46.436Z,100410.00
2022-09-07T16:07:04.274Z,100410.34
2022-09-07T16:08:25.470Z,100408.67
2022-09-07T16:09:43.780Z,100406.69
2022-09-07T16:11:05.926Z,100404.39
2022-09-07T16:13:46.897Z,100400.46
2022-09-07T16:15:05.852Z,100398.92